sensor_id;sensor_type;location;lat;lon;timestamp;pressure;altitude;pressure_sealevel;temperature;humidity
36748;BME280;22716;51.556;5.080;2023-02-03T00:02:44;101808.47;;;8.84;100.00
36748;BME280;22716;51.556;5.080;2023-02-03T00:05:12;101808.47;;;8.84;100.00
36748;BME280;22716;51.556;5.080;2023-02-03T00:07:41;101811.03;;;8.80;100.00
36748;BME280;22716;51.556;5.080;2023-02-03T00:10:10;101817.22;;;8.89;100.00
36748;BME280;22716;51.556;5.080;2023-02-03T00:12:39;101823.34;;;8.88;100.00
36748;BME280;22716;51.556;5.080;2023-02-03T00:15:09;101819.84;;;8.88;100.00
36748;BME280;22716;51.556;5.080;2023-02-03T00:17:40;101826.81;;;8.87;100.00
36748;BME280;22716;51.556;5.080;2023-02-03T00:20:10;101831.19;;;8.90;100.00
36748;BME280;22716;51.556;5.080;2023-02-03T00:22:39;101833.84;;;8.91;100.00
36748;BME280;22716;51.556;5.080;2023-02-03T00:25:08;101829.50;;;8.93;100.00
36748;BME280;22716;51.556;5.080;2023-02-03T00:27:37;101829.53;;;8.95;100.00
36748;BME280;22716;51.556;5.080;2023-02-03T00:30:08;101819.00;;;8.90;100.00
36748;BME280;22716;51.556;5.080;2023-02-03T00:32:36;101843.44;;;8.94;100.00
36748;BME280;22716;51.556;5.080;2023-02-03T00:35:08;101847.81;;;8.96;100.00
36748;BME280;22716;51.556;5.080;2023-02-03T00:37:37;101850.44;;;8.96;100.00
36748;BME280;22716;51.556;5.080;2023-02-03T00:40:07;101860.03;;;8.97;100.00
36748;BME280;22716;51.556;5.080;2023-02-03T00:42:36;101842.53;;;8.90;100.00
36748;BME280;22716;51.556;5.080;2023-02-03T00:45:06;101852.22;;;8.99;100.00
36748;BME280;22716;51.556;5.080;2023-02-03T00:47:35;101833.84;;;8.93;100.00
36748;BME280;22716;51.556;5.080;2023-02-03T00:50:08;101854.84;;;9.00;100.00
36748;BME280;22716;51.556;5.080;2023-02-03T00:52:37;101845.25;;;8.99;100.00
36748;BME280;22716;51.556;5.080;2023-02-03T00:55:07;101847.00;;;9.02;100.00
36748;BME280;22716;51.556;5.080;2023-02-03T00:57:36;101845.28;;;9.01;100.00
36748;BME280;22716;51.556;5.080;2023-02-03T01:00:07;101856.59;;;9.01;100.00
36748;BME280;22716;51.556;5.080;2023-02-03T01:02:36;101870.56;;;9.04;100.00
36748;BME280;22716;51.556;5.080;2023-02-03T01:05:08;101870.56;;;9.05;100.00
36748;BME280;22716;51.556;5.080;2023-02-03T01:07:37;101873.19;;;9.05;100.00
36748;BME280;22716;51.556;5.080;2023-02-03T01:10:07;101870.56;;;9.05;100.00
36748;BME280;22716;51.556;5.080;2023-02-03T01:12:36;101871.47;;;9.04;100.00
36748;BME280;22716;51.556;5.080;2023-02-03T01:15:06;101881.97;;;9.09;100.00
36748;BME280;22716;51.556;5.080;2023-02-03T01:17:35;101870.56;;;9.05;100.00
36748;BME280;22716;51.556;5.080;2023-02-03T01:20:09;101864.53;;;9.09;100.00
36748;BME280;22716;51.556;5.080;2023-02-03T01:22:39;101843.50;;;9.00;100.00
36748;BME280;22716;51.556;5.080;2023-02-03T01:25:08;101850.53;;;9.04;100.00
36748;BME280;22716;51.556;5.080;2023-02-03T01:27:37;101830.47;;;9.05;100.00
36748;BME280;22716;51.556;5.080;2023-02-03T01:30:07;101824.38;;;9.02;100.00
36748;BME280;22716;51.556;5.080;2023-02-03T01:32:36;101854.00;;;9.03;100.00
36748;BME280;22716;51.556;5.080;2023-02-03T01:35:08;101855.78;;;9.04;100.00
36748;BME280;22716;51.556;5.080;2023-02-03T01:37:37;101850.50;;;9.01;100.00
36748;BME280;22716;51.556;5.080;2023-02-03T01:40:08;101853.13;;;9.02;100.00
36748;BME280;22716;51.556;5.080;2023-02-03T01:42:37;101840.91;;;9.00;100.00
36748;BME280;22716;51.556;5.080;2023-02-03T01:45:08;101845.28;;;9.01;100.00
36748;BME280;22716;51.556;5.080;2023-02-03T01:47:42;101831.31;;;9.00;100.00
36748;BME280;22716;51.556;5.080;2023-02-03T01:50:17;101833.84;;;8.93;100.00
36748;BME280;22716;51.556;5.080;2023-02-03T01:52:50;101835.56;;;8.91;100.00
36748;BME280;22716;51.556;5.080;2023-02-03T01:55:25;101842.63;;;8.99;100.00
36748;BME280;22716;51.556;5.080;2023-02-03T01:58:00;101836.53;;;8.99;100.00
36748;BME280;22716;51.556;5.080;2023-02-03T02:00:31;101823.47;;;9.00;100.00
36748;BME280;22716;51.556;5.080;2023-02-03T02:03:01;101810.38;;;8.99;100.00
36748;BME280;22716;51.556;5.080;2023-02-03T02:05:37;101810.41;;;9.00;100.00
36748;BME280;22716;51.556;5.080;2023-02-03T02:08:11;101809.53;;;9.01;100.00
36748;BME280;22716;51.556;5.080;2023-02-03T02:10:40;101810.41;;;9.02;100.00
36748;BME280;22716;51.556;5.080;2023-02-03T02:13:10;101798.22;;;9.01;100.00
36748;BME280;22716;51.556;5.080;2023-02-03T02:15:46;101799.94;;;8.97;100.00
36748;BME280;22716;51.556;5.080;2023-02-03T02:18:36;101817.31;;;8.94;100.00
36748;BME280;22716;51.556;5.080;2023-02-03T02:21:26;101813.81;;;8.93;100.00
36748;BME280;22716;51.556;5.080;2023-02-03T02:26:56;101816.41;;;8.92;100.00
36748;BME280;22716;51.556;5.080;2023-02-03T02:29:51;101819.91;;;8.94;100.00
36748;BME280;22716;51.556;5.080;2023-02-03T02:32:37;101795.44;;;8.86;100.00
36748;BME280;22716;51.556;5.080;2023-02-03T02:35:17;101788.50;;;8.92;100.00
36748;BME280;22716;51.556;5.080;2023-02-03T02:37:52;101795.50;;;8.93;100.00
36748;BME280;22716;51.556;5.080;2023-02-03T02:40:31;101820.84;;;8.99;100.00
36748;BME280;22716;51.556;5.080;2023-02-03T02:43:06;101826.06;;;8.99;100.00
36748;BME280;22716;51.556;5.080;2023-02-03T02:45:38;101823.44;;;8.97;100.00
36748;BME280;22716;51.556;5.080;2023-02-03T02:48:16;101826.94;;;8.98;100.00
36748;BME280;22716;51.556;5.080;2023-02-03T02:50:51;101806.84;;;8.94;100.00
36748;BME280;22716;51.556;5.080;2023-02-03T02:53:25;101826.13;;;9.05;100.00
36748;BME280;22716;51.556;5.080;2023-02-03T02:55:57;101805.19;;;9.00;100.00
36748;BME280;22716;51.556;5.080;2023-02-03T02:58:28;101814.84;;;9.08;100.00
36748;BME280;22716;51.556;5.080;2023-02-03T03:01:00;101811.34;;;9.06;100.00
36748;BME280;22716;51.556;5.080;2023-02-03T03:03:32;101812.28;;;9.12;100.00
36748;BME280;22716;51.556;5.080;2023-02-03T03:06:03;101810.56;;;9.14;100.00
36748;BME280;22716;51.556;5.080;2023-02-03T03:08:37;101801.84;;;9.17;100.00
36748;BME280;22716;51.556;5.080;2023-02-03T03:11:08;101808.84;;;9.19;100.00
36748;BME280;22716;51.556;5.080;2023-02-03T03:13:39;101808.88;;;9.21;100.00
36748;BME280;22716;51.556;5.080;2023-02-03T03:16:11;101803.69;;;9.24;100.00
36748;BME280;22716;51.556;5.080;2023-02-03T03:18:46;101798.44;;;9.22;100.00
36748;BME280;22716;51.556;5.080;2023-02-03T03:21:23;101794.97;;;9.23;100.00
36748;BME280;22716;51.556;5.080;2023-02-03T03:23:56;101786.25;;;9.21;100.00
36748;BME280;22716;51.556;5.080;2023-02-03T03:26:30;101784.50;;;9.23;100.00
36748;BME280;22716;51.556;5.080;2023-02-03T03:29:06;101783.66;;;9.26;100.00
36748;BME280;22716;51.556;5.080;2023-02-03T03:31:39;101795.03;;;9.29;100.00
36748;BME280;22716;51.556;5.080;2023-02-03T03:34:12;101794.19;;;9.32;100.00
36748;BME280;22716;51.556;5.080;2023-02-03T03:36:45;101786.31;;;9.27;100.00
36748;BME280;22716;51.556;5.080;2023-02-03T03:39:21;101784.50;;;9.25;100.00
36748;BME280;22716;51.556;5.080;2023-02-03T03:41:56;101793.28;;;9.30;100.00
36748;BME280;22716;51.556;5.080;2023-02-03T03:44:30;101762.66;;;9.17;100.00
36748;BME280;22716;51.556;5.080;2023-02-03T03:47:08;101780.19;;;9.27;100.00
36748;BME280;22716;51.556;5.080;2023-02-03T03:49:42;101786.25;;;9.23;100.00
36748;BME280;22716;51.556;5.080;2023-02-03T03:52:13;101789.69;;;9.22;100.00
36748;BME280;22716;51.556;5.080;2023-02-03T03:54:44;101793.16;;;9.19;100.00
36748;BME280;22716;51.556;5.080;2023-02-03T03:57:18;101793.16;;;9.19;100.00
36748;BME280;22716;51.556;5.080;2023-02-03T03:59:50;101791.44;;;9.20;100.00
36748;BME280;22716;51.556;5.080;2023-02-03T04:02:20;101787.13;;;9.23;100.00
36748;BME280;22716;51.556;5.080;2023-02-03T04:04:53;101807.19;;;9.24;100.00
36748;BME280;22716;51.556;5.080;2023-02-03T04:07:23;101807.19;;;9.24;100.00
36748;BME280;22716;51.556;5.080;2023-02-03T04:10:09;101808.97;;;9.27;100.00
36748;BME280;22716;51.556;5.080;2023-02-03T04:12:40;101781.84;;;9.20;100.00
36748;BME280;22716;51.556;5.080;2023-02-03T04:15:09;101802.81;;;9.25;100.00
36748;BME280;22716;51.556;5.080;2023-02-03T04:17:38;101814.19;;;9.28;100.00
36748;BME280;22716;51.556;5.080;2023-02-03T04:20:11;101805.44;;;9.25;100.00
36748;BME280;22716;51.556;5.080;2023-02-03T04:22:41;101824.66;;;9.28;100.00
36748;BME280;22716;51.556;5.080;2023-02-03T04:25:09;101832.50;;;9.28;100.00
36748;BME280;22716;51.556;5.080;2023-02-03T04:27:39;101813.31;;;9.26;100.00
36748;BME280;22716;51.556;5.080;2023-02-03T04:30:10;101807.22;;;9.27;100.00
36748;BME280;22716;51.556;5.080;2023-02-03T04:32:39;101809.81;;;9.24;100.00
36748;BME280;22716;51.556;5.080;2023-02-03T04:35:12;101829.88;;;9.28;100.00
36748;BME280;22716;51.556;5.080;2023-02-03T04:37:41;101826.41;;;9.29;100.00
36748;BME280;22716;51.556;5.080;2023-02-03T04:40:11;101815.94;;;9.29;100.00
36748;BME280;22716;51.556;5.080;2023-02-03T04:42:41;101806.34;;;9.27;100.00
36748;BME280;22716;51.556;5.080;2023-02-03T04:45:11;101819.44;;;9.30;100.00
36748;BME280;22716;51.556;5.080;2023-02-03T04:47:40;101816.88;;;9.33;100.00
36748;BME280;22716;51.556;5.080;2023-02-03T04:50:11;101819.47;;;9.34;100.00
36748;BME280;22716;51.556;5.080;2023-02-03T04:52:40;101795.91;;;9.30;100.00
36748;BME280;22716;51.556;5.080;2023-02-03T04:55:09;101810.75;;;9.32;100.00
36748;BME280;22716;51.556;5.080;2023-02-03T04:57:38;101798.56;;;9.34;100.00
36748;BME280;22716;51.556;5.080;2023-02-03T05:00:08;101802.88;;;9.31;100.00
36748;BME280;22716;51.556;5.080;2023-02-03T05:02:37;101807.25;;;9.30;100.00
36748;BME280;22716;51.556;5.080;2023-02-03T05:05:07;101806.41;;;9.33;100.00
36748;BME280;22716;51.556;5.080;2023-02-03T05:07:38;101797.66;;;9.31;100.00
36748;BME280;22716;51.556;5.080;2023-02-03T05:10:08;101797.66;;;9.31;100.00
36748;BME280;22716;51.556;5.080;2023-02-03T05:12:37;101794.19;;;9.32;100.00
36748;BME280;22716;51.556;5.080;2023-02-03T05:15:07;101806.41;;;9.33;100.00
36748;BME280;22716;51.556;5.080;2023-02-03T05:17:36;101800.25;;;9.29;100.00
36748;BME280;22716;51.556;5.080;2023-02-03T05:20:07;101817.72;;;9.30;100.00
36748;BME280;22716;51.556;5.080;2023-02-03T05:22:38;101821.19;;;9.31;100.00
36748;BME280;22716;51.556;5.080;2023-02-03T05:25:08;101829.91;;;9.31;100.00
36748;BME280;22716;51.556;5.080;2023-02-03T05:27:38;101829.94;;;9.34;100.00
36748;BME280;22716;51.556;5.080;2023-02-03T05:30:10;101794.09;;;9.21;100.00
36748;BME280;22716;51.556;5.080;2023-02-03T05:32:39;101809.78;;;9.23;100.00
36748;BME280;22716;51.556;5.080;2023-02-03T05:35:08;101836.03;;;9.30;100.00
36748;BME280;22716;51.556;5.080;2023-02-03T05:37:39;101830.78;;;9.30;100.00
36748;BME280;22716;51.556;5.080;2023-02-03T05:40:09;101836.00;;;9.29;100.00
36748;BME280;22716;51.556;5.080;2023-02-03T05:42:53;101823.69;;;9.20;100.00
36748;BME280;22716;51.556;5.080;2023-02-03T05:45:22;101822.03;;;9.28;100.00
36748;BME280;22716;51.556;5.080;2023-02-03T05:47:50;101813.28;;;9.23;100.00
36748;BME280;22716;51.556;5.080;2023-02-03T05:50:19;101806.25;;;9.18;100.00
36748;BME280;22716;51.556;5.080;2023-02-03T05:52:50;101820.25;;;9.24;100.00
36748;BME280;22716;51.556;5.080;2023-02-03T05:55:19;101823.72;;;9.25;100.00
36748;BME280;22716;51.556;5.080;2023-02-03T05:57:48;101818.47;;;9.19;100.00
36748;BME280;22716;51.556;5.080;2023-02-03T06:00:18;101835.03;;;9.22;100.00
36748;BME280;22716;51.556;5.080;2023-02-03T06:02:50;101823.72;;;9.25;100.00
36748;BME280;22716;51.556;5.080;2023-02-03T06:05:19;101832.41;;;9.22;100.00
36748;BME280;22716;51.556;5.080;2023-02-03T06:07:51;101834.19;;;9.23;100.00
36748;BME280;22716;51.556;5.080;2023-02-03T06:10:20;101825.47;;;9.23;100.00
36748;BME280;22716;51.556;5.080;2023-02-03T06:12:49;101825.50;;;9.24;100.00
36748;BME280;22716;51.556;5.080;2023-02-03T06:15:18;101835.03;;;9.22;100.00
36748;BME280;22716;51.556;5.080;2023-02-03T06:17:48;101829.81;;;9.21;100.00
36748;BME280;22716;51.556;5.080;2023-02-03T06:20:18;101818.47;;;9.20;100.00
36748;BME280;22716;51.556;5.080;2023-02-03T06:22:47;101815.81;;;9.17;100.00
36748;BME280;22716;51.556;5.080;2023-02-03T06:25:19;101823.69;;;9.20;100.00
36748;BME280;22716;51.556;5.080;2023-02-03T06:27:48;101831.53;;;9.19;100.00
36748;BME280;22716;51.556;5.080;2023-02-03T06:30:18;101842.88;;;9.21;100.00
36748;BME280;22716;51.556;5.080;2023-02-03T06:32:48;101832.41;;;9.21;100.00
36748;BME280;22716;51.556;5.080;2023-02-03T06:35:17;101832.41;;;9.21;100.00
36748;BME280;22716;51.556;5.080;2023-02-03T06:37:46;101817.59;;;9.20;100.00
36748;BME280;22716;51.556;5.080;2023-02-03T06:40:18;101805.41;;;9.19;100.00
36748;BME280;22716;51.556;5.080;2023-02-03T06:42:47;101800.91;;;9.10;100.00
36748;BME280;22716;51.556;5.080;2023-02-03T06:45:16;101808.84;;;9.19;100.00
36748;BME280;22716;51.556;5.080;2023-02-03T06:47:45;101815.81;;;9.17;100.00
36748;BME280;22716;51.556;5.080;2023-02-03T06:50:14;101821.03;;;9.17;100.00
36748;BME280;22716;51.556;5.080;2023-02-03T06:52:44;101816.66;;;9.16;100.00
36748;BME280;22716;51.556;5.080;2023-02-03T06:55:12;101806.25;;;9.19;100.00
36748;BME280;22716;51.556;5.080;2023-02-03T06:57:47;101798.41;;;9.19;100.00
36748;BME280;22716;51.556;5.080;2023-02-03T07:00:18;101801.88;;;9.15;100.00
36748;BME280;22716;51.556;5.080;2023-02-03T07:02:52;101814.97;;;9.18;100.00
36748;BME280;22716;51.556;5.080;2023-02-03T07:05:22;101803.66;;;9.21;100.00
36748;BME280;22716;51.556;5.080;2023-02-03T07:07:52;101801.75;;;9.08;100.00
36748;BME280;22716;51.556;5.080;2023-02-03T07:10:21;101814.13;;;9.22;100.00
36748;BME280;22716;51.556;5.080;2023-02-03T07:12:53;101835.03;;;9.22;100.00
36748;BME280;22716;51.556;5.080;2023-02-03T07:15:21;101843.81;;;9.24;100.00
36748;BME280;22716;51.556;5.080;2023-02-03T07:17:51;101841.91;;;9.11;100.00
36748;BME280;22716;51.556;5.080;2023-02-03T07:20:22;101861.19;;;9.22;100.00
36748;BME280;22716;51.556;5.080;2023-02-03T07:22:54;101858.56;;;9.22;100.00
36748;BME280;22716;51.556;5.080;2023-02-03T07:25:24;101868.19;;;9.23;100.00
36748;BME280;22716;51.556;5.080;2023-02-03T07:27:55;101859.50;;;9.24;100.00
36748;BME280;22716;51.556;5.080;2023-02-03T07:30:24;101877.78;;;9.24;100.00
36748;BME280;22716;51.556;5.080;2023-02-03T07:32:53;101876.91;;;9.25;100.00
36748;BME280;22716;51.556;5.080;2023-02-03T07:35:22;101861.22;;;9.24;100.00
36748;BME280;22716;51.556;5.080;2023-02-03T07:37:51;101869.91;;;9.23;100.00
36748;BME280;22716;51.556;5.080;2023-02-03T07:40:20;101866.41;;;9.22;100.00
36748;BME280;22716;51.556;5.080;2023-02-03T07:42:49;101854.22;;;9.21;100.00
36748;BME280;22716;51.556;5.080;2023-02-03T07:45:20;101858.56;;;9.22;100.00
36748;BME280;22716;51.556;5.080;2023-02-03T07:47:49;101862.91;;;9.20;100.00
36748;BME280;22716;51.556;5.080;2023-02-03T07:50:18;101868.16;;;9.20;100.00
36748;BME280;22716;51.556;5.080;2023-02-03T07:52:49;101849.78;;;9.13;100.00
36748;BME280;22716;51.556;5.080;2023-02-03T07:55:18;101867.31;;;9.21;100.00
36748;BME280;22716;51.556;5.080;2023-02-03T07:57:47;101869.91;;;9.21;100.00
36748;BME280;22716;51.556;5.080;2023-02-03T08:00:17;101869.91;;;9.21;100.00
36748;BME280;22716;51.556;5.080;2023-02-03T08:02:49;101858.47;;;9.13;100.00
36748;BME280;22716;51.556;5.080;2023-02-03T08:05:18;101879.47;;;9.19;100.00
36748;BME280;22716;51.556;5.080;2023-02-03T08:07:48;101876.84;;;9.19;100.00
36748;BME280;22716;51.556;5.080;2023-02-03T08:10:16;101875.97;;;9.17;100.00
36748;BME280;22716;51.556;5.080;2023-02-03T08:12:45;101881.22;;;9.19;100.00
36748;BME280;22716;51.556;5.080;2023-02-03T08:15:14;101897.75;;;9.19;100.00
36748;BME280;22716;51.556;5.080;2023-02-03T08:17:43;101903.88;;;9.18;100.00
36748;BME280;22716;51.556;5.080;2023-02-03T08:20:14;101893.41;;;9.18;100.00
36748;BME280;22716;51.556;5.080;2023-02-03T08:22:44;101895.16;;;9.19;100.00
36748;BME280;22716;51.556;5.080;2023-02-03T08:25:13;101870.66;;;9.11;100.00
36748;BME280;22716;51.556;5.080;2023-02-03T08:27:42;101888.19;;;9.20;100.00
36748;BME280;22716;51.556;5.080;2023-02-03T08:30:12;101895.19;;;9.21;100.00
36748;BME280;22716;51.556;5.080;2023-02-03T08:32:41;101893.41;;;9.20;100.00
36748;BME280;22716;51.556;5.080;2023-02-03T08:35:10;101894.28;;;9.20;100.00
36748;BME280;22716;51.556;5.080;2023-02-03T08:37:41;101896.88;;;9.17;100.00
36748;BME280;22716;51.556;5.080;2023-02-03T08:40:12;101925.72;;;9.23;100.00
36748;BME280;22716;51.556;5.080;2023-02-03T08:42:40;101923.94;;;9.22;100.00
36748;BME280;22716;51.556;5.080;2023-02-03T08:45:09;101931.81;;;9.24;100.00
36748;BME280;22716;51.556;5.080;2023-02-03T08:47:38;101932.69;;;9.23;100.00
36748;BME280;22716;51.556;5.080;2023-02-03T08:50:09;101938.75;;;9.22;100.00
36748;BME280;22716;51.556;5.080;2023-02-03T08:52:40;101922.09;;;9.14;100.00
36748;BME280;22716;51.556;5.080;2023-02-03T08:55:09;101933.56;;;9.25;100.00
36748;BME280;22716;51.556;5.080;2023-02-03T08:57:38;101951.91;;;9.28;100.00
36748;BME280;22716;51.556;5.080;2023-02-03T09:00:09;101956.28;;;9.27;100.00
36748;BME280;22716;51.556;5.080;2023-02-03T09:02:38;101935.31;;;9.26;100.00
36748;BME280;22716;51.556;5.080;2023-02-03T09:05:08;101942.31;;;9.27;100.00
36748;BME280;22716;51.556;5.080;2023-02-03T09:07:37;101930.09;;;9.24;100.00
36748;BME280;22716;51.556;5.080;2023-02-03T09:10:09;101946.72;;;9.31;100.00
36748;BME280;22716;51.556;5.080;2023-02-03T09:12:38;101939.78;;;9.34;100.00
36748;BME280;22716;51.556;5.080;2023-02-03T09:15:08;101947.66;;;9.36;100.00
36748;BME280;22716;51.556;5.080;2023-02-03T09:17:37;101943.31;;;9.36;100.00
36748;BME280;22716;51.556;5.080;2023-02-03T09:20:07;101935.47;;;9.39;100.00
36748;BME280;22716;51.556;5.080;2023-02-03T09:22:38;101925.91;;;9.38;100.00
36748;BME280;22716;51.556;5.080;2023-02-03T09:25:09;101932.13;;;9.48;100.00
36748;BME280;22716;51.556;5.080;2023-02-03T09:27:38;101937.38;;;9.51;100.00
36748;BME280;22716;51.556;5.080;2023-02-03T09:30:08;101925.13;;;9.48;100.00
36748;BME280;22716;51.556;5.080;2023-02-03T09:32:39;101944.38;;;9.55;100.00
36748;BME280;22716;51.556;5.080;2023-02-03T09:35:08;101943.53;;;9.57;100.00
36748;BME280;22716;51.556;5.080;2023-02-03T09:37:36;101952.28;;;9.58;100.00
36748;BME280;22716;51.556;5.080;2023-02-03T09:40:09;101958.44;;;9.63;100.00
36748;BME280;22716;51.556;5.080;2023-02-03T09:42:57;101956.66;;;9.59;100.00
36748;BME280;22716;51.556;5.080;2023-02-03T09:45:29;101960.16;;;9.61;100.00
36748;BME280;22716;51.556;5.080;2023-02-03T09:48:03;101963.63;;;9.60;100.00
36748;BME280;22716;51.556;5.080;2023-02-03T09:50:33;101974.06;;;9.57;100.00
36748;BME280;22716;51.556;5.080;2023-02-03T09:53:07;101981.09;;;9.60;100.00
36748;BME280;22716;51.556;5.080;2023-02-03T09:55:45;101976.75;;;9.62;100.00
36748;BME280;22716;51.556;5.080;2023-02-03T09:58:16;101986.38;;;9.63;100.00
36748;BME280;22716;51.556;5.080;2023-02-03T10:00:50;101984.63;;;9.66;100.00
36748;BME280;22716;51.556;5.080;2023-02-03T10:03:27;101973.34;;;9.69;100.00
36748;BME280;22716;51.556;5.080;2023-02-03T10:06:19;101984.75;;;9.75;100.00
36748;BME280;22716;51.556;5.080;2023-02-03T10:09:04;101979.53;;;9.78;100.00
36748;BME280;22716;51.556;5.080;2023-02-03T10:11:53;101970.84;;;9.79;100.00
36748;BME280;22716;51.556;5.080;2023-02-03T10:14:36;101968.25;;;9.84;100.00
36748;BME280;22716;51.556;5.080;2023-02-03T10:17:18;101962.22;;;9.91;100.00
36748;BME280;22716;51.556;5.080;2023-02-03T10:19:57;101961.44;;;9.98;100.00
36748;BME280;22716;51.556;5.080;2023-02-03T10:22:31;101969.28;;;9.99;100.00
36748;BME280;22716;51.556;5.080;2023-02-03T10:25:06;101971.03;;;9.99;100.00
36748;BME280;22716;51.556;5.080;2023-02-03T10:27:39;101981.53;;;10.00;100.00
36748;BME280;22716;51.556;5.080;2023-02-03T10:30:18;101991.13;;;10.00;100.00
36748;BME280;22716;51.556;5.080;2023-02-03T10:32:49;101973.69;;;10.02;100.00
36748;BME280;22716;51.556;5.080;2023-02-03T10:35:20;101986.75;;;10.02;100.00
36748;BME280;22716;51.556;5.080;2023-02-03T10:37:54;101974.56;;;10.04;100.00
36748;BME280;22716;51.556;5.080;2023-02-03T10:40:26;101974.59;;;10.07;100.00
36748;BME280;22716;51.556;5.080;2023-02-03T10:42:58;101991.25;;;10.12;100.00
36748;BME280;22716;51.556;5.080;2023-02-03T10:45:39;101981.69;;;10.14;100.00
36748;BME280;22716;51.556;5.080;2023-02-03T10:48:14;101992.22;;;10.20;100.00
36748;BME280;22716;51.556;5.080;2023-02-03T10:50:47;101994.84;;;10.22;100.00
36748;BME280;22716;51.556;5.080;2023-02-03T10:53:22;101989.66;;;10.26;100.00
36748;BME280;22716;51.556;5.080;2023-02-03T10:56:00;101968.63;;;10.17;100.00
36748;BME280;22716;51.556;5.080;2023-02-03T10:58:33;101982.72;;;10.30;100.00
36748;BME280;22716;51.556;5.080;2023-02-03T11:01:09;101998.41;;;10.28;100.00
36748;BME280;22716;51.556;5.080;2023-02-03T11:03:41;102002.78;;;10.31;100.00
36748;BME280;22716;51.556;5.080;2023-02-03T11:06:12;101996.72;;;10.35;100.00
36748;BME280;22716;51.556;5.080;2023-02-03T11:08:43;101997.53;;;10.31;100.00
36748;BME280;22716;51.556;5.080;2023-02-03T11:11:14;101997.56;;;10.34;100.00
36748;BME280;22716;51.556;5.080;2023-02-03T11:13:46;102008.06;;;10.37;100.00
36748;BME280;22716;51.556;5.080;2023-02-03T11:16:19;102005.44;;;10.34;100.00
36748;BME280;22716;51.556;5.080;2023-02-03T11:18:55;102006.31;;;10.34;100.00
36748;BME280;22716;51.556;5.080;2023-02-03T11:21:27;102006.34;;;10.37;100.00
36748;BME280;22716;51.556;5.080;2023-02-03T11:24:03;101989.72;;;10.32;100.00
36748;BME280;22716;51.556;5.080;2023-02-03T11:26:36;102001.91;;;10.29;100.00
36748;BME280;22716;51.556;5.080;2023-02-03T11:29:17;101997.50;;;10.26;100.00
36748;BME280;22716;51.556;5.080;2023-02-03T11:31:48;102003.63;;;10.28;100.00
36748;BME280;22716;51.556;5.080;2023-02-03T11:34:19;101992.28;;;10.28;100.00
36748;BME280;22716;51.556;5.080;2023-02-03T11:36:50;102000.19;;;10.32;100.00
36748;BME280;22716;51.556;5.080;2023-02-03T11:39:24;101983.66;;;10.39;100.00
36748;BME280;22716;51.556;5.080;2023-02-03T11:41:54;101983.72;;;10.48;100.00
36748;BME280;22716;51.556;5.080;2023-02-03T11:44:28;101994.25;;;10.54;100.00
36748;BME280;22716;51.556;5.080;2023-02-03T11:47:02;101982.06;;;10.56;100.00
36748;BME280;22716;51.556;5.080;2023-02-03T11:52:58;101990.81;;;10.58;100.00
36748;BME280;22716;51.556;5.080;2023-02-03T11:55:48;101981.06;;;10.45;100.00
36748;BME280;22716;51.556;5.080;2023-02-03T11:58:37;101971.56;;;10.53;100.00
36748;BME280;22716;51.556;5.080;2023-02-03T12:01:20;102001.34;;;10.66;100.00
36748;BME280;22716;51.556;5.080;2023-02-03T12:04:18;101992.63;;;10.70;100.00
36748;BME280;22716;51.556;5.080;2023-02-03T12:07:08;101981.28;;;10.73;100.00
36748;BME280;22716;51.556;5.080;2023-02-03T12:09:49;101984.78;;;10.72;100.00
36748;BME280;22716;51.556;5.080;2023-02-03T12:12:35;101988.31;;;10.74;100.00
36748;BME280;22716;51.556;5.080;2023-02-03T12:15:32;101997.03;;;10.73;100.00
36748;BME280;22716;51.556;5.080;2023-02-03T12:18:15;101990.88;;;10.67;100.00
36748;BME280;22716;51.556;5.080;2023-02-03T12:20:59;101987.41;;;10.70;100.00
36748;BME280;22716;51.556;5.080;2023-02-03T12:23:41;101990.88;;;10.67;100.00
36748;BME280;22716;51.556;5.080;2023-02-03T12:26:18;101989.09;;;10.62;100.00
36748;BME280;22716;51.556;5.080;2023-02-03T12:28:53;102003.94;;;10.66;100.00
36748;BME280;22716;51.556;5.080;2023-02-03T12:31:29;102001.34;;;10.67;100.00
36748;BME280;22716;51.556;5.080;2023-02-03T12:34:12;102009.25;;;10.71;100.00
36748;BME280;22716;51.556;5.080;2023-02-03T12:36:46;102004.88;;;10.68;100.00
36748;BME280;22716;51.556;5.080;2023-02-03T12:39:23;101998.75;;;10.67;100.00
36748;BME280;22716;51.556;5.080;2023-02-03T12:41:56;102003.16;;;10.73;100.00
36748;BME280;22716;51.556;5.080;2023-02-03T12:44:31;102004.03;;;10.74;100.00
36748;BME280;22716;51.556;5.080;2023-02-03T12:47:10;102008.34;;;10.72;100.00
36748;BME280;22716;51.556;5.080;2023-02-03T12:49:45;102014.50;;;10.74;100.00
36748;BME280;22716;51.556;5.080;2023-02-03T12:52:20;102012.75;;;10.73;100.00
36748;BME280;22716;51.556;5.080;2023-02-03T12:54:58;102011.00;;;10.73;100.00
36748;BME280;22716;51.556;5.080;2023-02-03T12:57:34;102016.22;;;10.65;100.00
36748;BME280;22716;51.556;5.080;2023-02-03T13:00:18;102032.75;;;10.63;100.00
36748;BME280;22716;51.556;5.080;2023-02-03T13:03:12;102015.34;;;10.69;100.00
36748;BME280;22716;51.556;5.080;2023-02-03T13:05:49;102019.72;;;10.71;100.00
36748;BME280;22716;51.556;5.080;2023-02-03T13:08:25;102015.38;;;10.71;100.00
36748;BME280;22716;51.556;5.080;2023-02-03T13:11:02;102020.59;;;10.73;100.00
36748;BME280;22716;51.556;5.080;2023-02-03T13:13:41;102011.88;;;10.71;100.00
36748;BME280;22716;51.556;5.080;2023-02-03T13:16:13;102009.25;;;10.72;100.00
36748;BME280;22716;51.556;5.080;2023-02-03T13:18:48;102016.19;;;10.68;100.00
36748;BME280;22716;51.556;5.080;2023-02-03T13:21:22;102023.22;;;10.69;100.00
36748;BME280;22716;51.556;5.080;2023-02-03T13:23:51;102020.59;;;10.68;100.00